Time;durP1;ratioP1;P1;durP2;ratioP2;P2;SDS_P1;SDS_P2;PMS_P1;PMS_P2;Temp;Humidity;BMP_temperature;BMP_pressure;BME280_temperature;BME280_humidity;BME280_pressure;Samples;Min_cycle;Max_cycle;Signal;HPM_P1;HPM_P2
2023/03/09 00:00:30;;;;;;;2.50;2.30;;;16.80;56.50;17.80;98034.00;;;;5009647;28;20177;-44
2023/03/09 00:02:56;;;;;;;2.80;2.30;;;16.80;56.50;17.70;98040.00;;;;5009510;28;20743;-44
2023/03/09 00:05:22;;;;;;;2.60;2.40;;;16.80;56.60;17.70;98054.00;;;;5009619;28;20218;-45
2023/03/09 00:07:48;;;;;;;2.50;2.30;;;16.80;56.60;17.70;98066.00;;;;5009304;28;20194;-45
2023/03/09 00:10:14;;;;;;;2.60;2.40;;;16.80;56.60;17.70;98064.00;;;;5009197;28;20523;-45
2023/03/09 00:12:40;;;;;;;2.83;2.63;;;16.70;56.60;17.70;98060.00;;;;5008973;28;20752;-44
2023/03/09 00:15:07;;;;;;;2.63;2.43;;;16.70;56.60;17.70;98062.00;;;;5009100;28;20273;-44
2023/03/09 00:17:32;;;;;;;2.57;2.37;;;16.70;56.60;17.70;98096.00;;;;5009099;28;20193;-44
2023/03/09 00:20:16;;;;;;;2.43;2.23;;;16.70;56.60;17.60;98121.00;;;;5009066;28;20681;-45
2023/03/09 00:22:42;;;;;;;2.60;2.40;;;16.70;56.60;17.60;98134.00;;;;5008576;28;20656;-43
2023/03/09 00:25:13;;;;;;;2.50;2.30;;;16.60;56.50;17.60;98136.00;;;;5008770;28;20208;-44
2023/03/09 00:27:41;;;;;;;2.70;2.50;;;16.70;56.60;17.60;98139.00;;;;5009026;28;20248;-44
2023/03/09 00:30:08;;;;;;;2.50;2.30;;;16.60;56.50;17.60;98138.00;;;;5008787;28;20177;-45
2023/03/09 00:32:34;;;;;;;2.40;2.20;;;16.60;56.60;17.60;98128.00;;;;5008820;28;20539;-44
2023/03/09 00:34:59;;;;;;;2.33;2.13;;;16.60;56.60;17.50;98117.00;;;;5008902;28;20189;-44
2023/03/09 00:37:25;;;;;;;2.67;2.47;;;16.60;56.60;17.50;98112.00;;;;5012435;28;20797;-44
2023/03/09 00:39:51;;;;;;;2.40;2.20;;;16.60;56.60;17.50;98095.00;;;;5009135;28;20189;-44
2023/03/09 00:42:17;;;;;;;2.70;2.50;;;16.60;56.70;17.50;98093.00;;;;5009044;28;20193;-44
2023/03/09 00:44:42;;;;;;;2.80;2.60;;;16.50;56.60;17.50;98074.00;;;;5008849;28;20177;-44
2023/03/09 00:47:08;;;;;;;2.30;2.10;;;16.50;56.70;17.40;98092.00;;;;5008861;28;20195;-45
2023/03/09 00:49:34;;;;;;;2.70;2.50;;;16.50;56.70;17.40;98094.00;;;;5008776;28;20168;-44
2023/03/09 00:51:59;;;;;;;2.70;2.50;;;16.50;56.70;17.40;98087.00;;;;5008604;28;20172;-44
2023/03/09 00:54:25;;;;;;;2.50;2.30;;;16.50;56.70;17.40;98091.00;;;;5008651;28;20617;-44
2023/03/09 00:56:51;;;;;;;2.50;2.30;;;16.50;56.70;17.40;98081.00;;;;5009022;28;20189;-44
2023/03/09 00:59:17;;;;;;;2.63;2.43;;;16.50;56.70;17.40;98085.00;;;;5012805;28;20178;-44
2023/03/09 01:01:42;;;;;;;2.60;2.40;;;16.40;56.90;17.20;98082.00;;;;5012674;28;20202;-44
2023/03/09 01:04:08;;;;;;;2.57;2.37;;;16.40;56.70;17.40;98098.00;;;;5012596;28;20185;-44
2023/03/09 01:06:34;;;;;;;2.20;2.10;;;16.40;56.70;17.30;98103.00;;;;5012757;28;20808;-44
2023/03/09 01:09:00;;;;;;;2.33;2.23;;;16.40;56.70;17.30;98120.00;;;;5012730;28;20174;-43
2023/03/09 01:11:25;;;;;;;2.60;2.40;;;16.40;56.80;17.30;98114.00;;;;5012556;28;20225;-44
2023/03/09 01:13:52;;;;;;;2.60;2.40;;;16.30;56.70;17.30;98119.00;;;;5012524;28;20575;-44
2023/03/09 01:16:17;;;;;;;2.43;2.27;;;16.40;56.90;17.30;98116.00;;;;5012999;28;20635;-44
2023/03/09 01:18:43;;;;;;;2.30;2.20;;;16.30;56.80;17.30;98119.00;;;;5012485;28;20254;-44
2023/03/09 01:21:09;;;;;;;2.40;2.20;;;16.30;57.50;17.30;98119.00;;;;5012039;28;20626;-44
2023/03/09 01:23:38;;;;;;;2.47;2.27;;;16.30;56.80;17.30;98115.00;;;;5012146;28;20184;-44
2023/03/09 01:26:04;;;;;;;2.43;2.23;;;16.30;56.80;17.30;98112.00;;;;5012128;28;20205;-44
2023/03/09 01:28:31;;;;;;;2.33;2.13;;;16.30;56.90;17.20;98114.00;;;;5012107;28;20488;-43
2023/03/09 01:30:56;;;;;;;2.50;2.30;;;16.30;56.80;17.20;98112.00;;;;5011829;28;20267;-44
2023/03/09 01:33:22;;;;;;;2.40;2.20;;;16.30;56.90;17.20;98128.00;;;;5012196;28;20260;-44
2023/03/09 01:35:48;;;;;;;2.50;2.30;;;16.30;56.90;17.20;98129.00;;;;5011974;28;20178;-44
2023/03/09 01:38:13;;;;;;;2.40;2.20;;;16.20;56.90;17.20;98129.00;;;;5012029;28;20175;-43
2023/03/09 01:40:40;;;;;;;2.47;2.27;;;16.20;56.90;17.20;98126.00;;;;5012010;28;20180;-44
2023/03/09 01:43:27;;;;;;;2.50;2.30;;;16.20;56.90;17.20;98126.00;;;;5010303;28;20185;-44
2023/03/09 01:46:24;;;;;;;2.30;2.20;;;16.20;56.90;17.20;98111.00;;;;5011689;28;20204;-43
2023/03/09 01:49:08;;;;;;;2.40;2.20;;;16.20;56.90;17.10;98117.00;;;;5011976;28;20173;-44
2023/03/09 01:51:55;;;;;;;2.47;2.27;;;16.20;56.90;17.10;98134.00;;;;5011850;28;20706;-44
2023/03/09 01:54:52;;;;;;;2.40;2.20;;;16.20;56.80;17.10;98137.00;;;;5010757;28;20185;-43
2023/03/09 01:57:28;;;;;;;2.50;2.30;;;16.10;56.90;17.10;98150.00;;;;5010708;28;20283;-44
2023/03/09 01:59:56;;;;;;;2.50;2.30;;;16.10;56.90;17.10;98144.00;;;;5013224;28;20175;-49
2023/03/09 02:02:24;;;;;;;2.20;2.10;;;16.10;56.90;17.10;98148.00;;;;5012676;28;20176;-44
2023/03/09 02:04:56;;;;;;;2.40;2.20;;;16.10;56.90;17.10;98159.00;;;;5010307;28;20286;-45
2023/03/09 02:07:22;;;;;;;2.30;2.20;;;16.10;56.90;17.10;98164.00;;;;5010164;28;20690;-44
2023/03/09 02:10:21;;;;;;;2.40;2.20;;;16.10;56.80;17.10;98177.00;;;;5009364;28;20253;-43
2023/03/09 02:12:52;;;;;;;2.57;2.37;;;16.10;56.80;17.10;98184.00;;;;5010255;28;20244;-43
2023/03/09 02:15:19;;;;;;;2.47;2.27;;;16.10;56.80;17.10;98198.00;;;;5010192;28;20658;-45
2023/03/09 02:17:45;;;;;;;2.30;2.20;;;16.00;56.70;17.10;98199.00;;;;5011307;28;20681;-44
2023/03/09 02:20:19;;;;;;;2.60;2.40;;;16.00;56.80;17.10;98211.00;;;;5009819;28;20310;-44
2023/03/09 02:22:45;;;;;;;2.40;2.20;;;16.00;56.80;17.10;98221.00;;;;5010750;28;20172;-44
2023/03/09 02:25:40;;;;;;;2.50;2.30;;;16.00;56.70;17.00;98224.00;;;;5009970;28;20225;-44
2023/03/09 02:28:06;;;;;;;2.40;2.20;;;16.00;56.70;17.00;98236.00;;;;5009723;28;20380;-45
2023/03/09 02:30:35;;;;;;;2.30;2.10;;;16.00;56.70;17.00;98232.00;;;;5011250;28;20493;-44
2023/03/09 02:33:20;;;;;;;2.23;2.13;;;16.00;56.70;17.00;98249.00;;;;5009748;28;20181;-44
2023/03/09 02:35:45;;;;;;;2.23;2.10;;;16.00;56.60;17.00;98247.00;;;;5011146;28;20186;-44
2023/03/09 02:38:13;;;;;;;2.27;2.17;;;16.00;56.70;17.00;98263.00;;;;5010676;28;20204;-45
2023/03/09 02:40:38;;;;;;;2.20;2.10;;;16.00;56.60;17.00;98261.00;;;;5010825;28;20179;-44
2023/03/09 02:43:04;;;;;;;2.47;2.27;;;16.00;56.60;17.00;98251.00;;;;5009376;28;20179;-45
2023/03/09 02:45:30;;;;;;;2.40;2.20;;;16.00;56.60;17.00;98273.00;;;;5009220;28;20218;-44
2023/03/09 02:47:56;;;;;;;2.53;2.33;;;16.00;56.60;17.00;98267.00;;;;5010655;28;20193;-44
2023/03/09 02:50:22;;;;;;;2.40;2.20;;;16.00;56.60;17.00;98279.00;;;;5009343;28;20650;-44
2023/03/09 02:52:48;;;;;;;2.50;2.30;;;16.00;56.60;17.00;98284.00;;;;5010571;28;20251;-44
2023/03/09 02:55:14;;;;;;;2.50;2.30;;;16.00;56.60;17.00;98287.00;;;;5011028;28;20177;-44
2023/03/09 02:57:41;;;;;;;2.47;2.27;;;16.00;56.60;17.00;98287.00;;;;5010851;28;20234;-44
2023/03/09 03:00:10;;;;;;;2.50;2.30;;;15.90;56.60;17.00;98311.00;;;;5010624;28;20267;-44
2023/03/09 03:02:37;;;;;;;2.50;2.30;;;15.90;56.60;16.90;98308.00;;;;5010392;28;20262;-44
2023/03/09 03:05:04;;;;;;;2.23;2.13;;;15.90;56.60;16.90;98298.00;;;;5010274;28;20195;-45
2023/03/09 03:07:30;;;;;;;2.37;2.17;;;15.90;56.60;16.90;98298.00;;;;5010364;28;20192;-44
2023/03/09 03:09:55;;;;;;;2.20;2.10;;;15.90;56.60;16.70;98307.00;;;;5010099;28;20173;-44
2023/03/09 03:12:21;;;;;;;2.47;2.27;;;15.90;56.60;16.90;98319.00;;;;5010009;28;20176;-43
2023/03/09 03:14:47;;;;;;;2.73;2.53;;;15.90;56.60;16.90;98309.00;;;;5010100;28;20168;-43
2023/03/09 03:17:13;;;;;;;2.40;2.20;;;15.90;56.60;16.90;98318.00;;;;5010150;28;20216;-44
2023/03/09 03:19:38;;;;;;;2.57;2.37;;;15.90;56.70;16.90;98315.00;;;;5010129;28;20647;-44
2023/03/09 03:22:04;;;;;;;2.60;2.40;;;15.90;56.60;16.90;98324.00;;;;5009888;28;20795;-44
2023/03/09 03:24:30;;;;;;;2.70;2.50;;;15.90;56.60;16.90;98335.00;;;;5013731;28;20184;-44
2023/03/09 03:26:56;;;;;;;2.60;2.40;;;15.90;56.70;16.90;98336.00;;;;5011456;28;20338;-44
2023/03/09 03:29:22;;;;;;;2.40;2.20;;;15.90;56.60;16.80;98335.00;;;;5009995;28;20650;-44
2023/03/09 03:31:47;;;;;;;2.70;2.50;;;15.90;56.70;16.80;98343.00;;;;5009849;28;20192;-44
2023/03/09 03:34:13;;;;;;;2.57;2.37;;;15.80;56.60;16.80;98349.00;;;;5012900;28;20514;-43
2023/03/09 03:36:39;;;;;;;2.40;2.23;;;15.80;56.60;16.80;98353.00;;;;5013153;28;20203;-43
2023/03/09 03:39:05;;;;;;;2.60;2.40;;;15.80;56.60;16.80;98365.00;;;;5012402;28;20188;-44
2023/03/09 03:41:31;;;;;;;2.70;2.50;;;15.80;56.60;16.80;98360.00;;;;5010246;28;20614;-43
2023/03/09 03:43:57;;;;;;;2.60;2.40;;;15.80;56.60;16.80;98369.00;;;;5009825;28;20199;-44
2023/03/09 03:46:23;;;;;;;2.40;2.20;;;15.80;56.60;16.80;98380.00;;;;5009821;28;20766;-44
2023/03/09 03:48:49;;;;;;;2.60;2.40;;;15.80;56.70;16.80;98386.00;;;;5009766;28;20172;-45
2023/03/09 03:51:14;;;;;;;2.67;2.47;;;15.70;56.60;16.80;98391.00;;;;5009747;28;20172;-45
2023/03/09 03:53:41;;;;;;;2.53;2.33;;;15.70;56.60;16.80;98384.00;;;;5009632;28;20172;-45
2023/03/09 03:56:06;;;;;;;2.53;2.33;;;15.80;56.70;16.80;98382.00;;;;5008408;28;20207;-44
2023/03/09 03:58:32;;;;;;;3.03;2.40;;;15.70;56.60;16.80;98385.00;;;;5009392;28;20179;-44
2023/03/09 04:00:58;;;;;;;2.40;2.20;;;15.70;56.60;16.70;98377.00;;;;5009195;28;20183;-44
2023/03/09 04:03:24;;;;;;;3.43;2.33;;;15.70;56.70;16.70;98393.00;;;;5009349;28;20176;-43
2023/03/09 04:05:49;;;;;;;2.70;2.23;;;15.70;56.60;16.70;98407.00;;;;5009123;28;20212;-44
2023/03/09 04:08:15;;;;;;;3.30;2.63;;;15.70;56.60;16.70;98411.00;;;;5009358;28;20179;-44
2023/03/09 04:10:41;;;;;;;3.57;2.50;;;15.70;56.60;16.70;98437.00;;;;5009278;28;20238;-44
2023/03/09 04:13:07;;;;;;;3.00;2.40;;;15.70;56.70;16.70;98419.00;;;;5009033;28;20194;-43
2023/03/09 04:15:33;;;;;;;4.97;2.60;;;15.70;56.70;16.70;98413.00;;;;5009264;28;20267;-44
2023/03/09 04:17:59;;;;;;;4.23;2.50;;;15.70;56.70;16.70;98422.00;;;;5009023;28;20210;-45
2023/03/09 04:20:24;;;;;;;3.33;2.60;;;15.70;56.60;16.60;98428.00;;;;5009094;28;20179;-44
2023/03/09 04:22:50;;;;;;;4.17;2.50;;;15.60;56.50;16.70;98436.00;;;;5008556;28;20183;-44
2023/03/09 04:25:16;;;;;;;2.60;2.40;;;15.60;56.50;16.70;98450.00;;;;5009304;28;20207;-43
2023/03/09 04:27:42;;;;;;;2.80;2.60;;;15.60;56.50;16.70;98453.00;;;;5008577;28;20658;-44
2023/03/09 04:30:09;;;;;;;3.33;2.30;;;15.60;56.90;16.60;98454.00;;;;5007558;28;20169;-43
2023/03/09 04:32:34;;;;;;;5.10;2.60;;;15.60;57.30;16.60;98454.00;;;;5008431;28;20176;-44
2023/03/09 04:35:00;;;;;;;3.13;2.40;;;15.60;57.20;16.60;98453.00;;;;5009131;28;20209;-44
2023/03/09 04:37:26;;;;;;;3.80;2.50;;;15.60;56.90;16.60;98465.00;;;;5009575;28;20199;-44
2023/03/09 04:39:52;;;;;;;3.60;2.40;;;15.60;56.90;16.60;98472.00;;;;5009757;28;20183;-44
2023/03/09 04:42:17;;;;;;;3.53;2.70;;;15.60;56.80;16.60;98474.00;;;;5008962;28;20200;-44
2023/03/09 04:44:43;;;;;;;3.20;2.50;;;15.60;56.80;16.60;98481.00;;;;5009164;28;20229;-44
2023/03/09 04:47:12;;;;;;;2.90;2.60;;;15.60;56.70;16.60;98482.00;;;;5009976;28;20192;-44
2023/03/09 04:49:39;;;;;;;2.70;2.50;;;15.60;56.70;16.60;98474.00;;;;5012517;28;20176;-44
2023/03/09 04:52:05;;;;;;;4.20;2.33;;;15.50;56.70;16.60;98465.00;;;;5009106;28;20176;-44
2023/03/09 04:54:30;;;;;;;3.13;2.43;;;15.50;56.60;16.60;98462.00;;;;5009694;28;20523;-44
2023/03/09 04:56:56;;;;;;;3.07;2.40;;;15.50;56.60;16.60;98483.00;;;;5009425;28;20213;-43
2023/03/09 04:59:22;;;;;;;3.47;2.43;;;15.50;56.60;16.50;98478.00;;;;5009460;28;20176;-44
2023/03/09 05:01:47;;;;;;;2.80;2.50;;;15.50;56.60;16.50;98489.00;;;;5009427;28;20271;-43
2023/03/09 05:04:13;;;;;;;2.60;2.40;;;15.50;56.60;16.50;98483.00;;;;5009755;28;20167;-44
2023/03/09 05:06:39;;;;;;;4.77;2.40;;;15.50;56.60;16.50;98489.00;;;;5009126;28;20691;-43
2023/03/09 05:09:05;;;;;;;2.50;2.30;;;15.50;56.60;16.50;98494.00;;;;5008227;28;20765;-43
2023/03/09 05:11:32;;;;;;;2.70;2.50;;;15.50;56.60;16.50;98497.00;;;;5002188;28;20188;-44
2023/03/09 05:13:58;;;;;;;2.50;2.30;;;15.50;56.70;16.50;98495.00;;;;5008655;28;20669;-46
2023/03/09 05:16:23;;;;;;;4.17;2.60;;;15.50;56.80;16.50;98494.00;;;;5008228;28;20203;-44
2023/03/09 05:18:50;;;;;;;2.60;2.40;;;15.50;56.90;16.50;98491.00;;;;5009076;28;20175;-43
2023/03/09 05:21:15;;;;;;;2.90;2.43;;;15.50;56.90;16.50;98501.00;;;;5008314;28;20176;-43
2023/03/09 05:23:41;;;;;;;3.93;2.50;;;15.40;56.80;16.40;98504.00;;;;5007901;28;20195;-44
2023/03/09 05:26:07;;;;;;;2.83;2.50;;;15.40;56.80;16.40;98502.00;;;;5007009;28;20254;-44
2023/03/09 05:28:37;;;;;;;4.80;2.40;;;15.40;56.80;16.40;98505.00;;;;5008734;28;20176;-43
2023/03/09 05:31:07;;;;;;;2.33;2.10;;;15.40;56.90;16.40;98503.00;;;;5007897;28;20265;-44
2023/03/09 05:33:32;;;;;;;5.20;2.40;;;15.40;56.90;16.40;98505.00;;;;5008939;28;20180;-44
2023/03/09 05:35:58;;;;;;;3.47;2.37;;;15.40;56.90;16.40;98512.00;;;;5008475;28;20195;-44
2023/03/09 05:38:24;;;;;;;4.13;2.30;;;15.40;56.90;16.40;98529.00;;;;5008727;28;20183;-44
2023/03/09 05:40:50;;;;;;;3.30;2.47;;;15.40;56.90;16.40;98459.00;;;;5008191;28;20545;-44
2023/03/09 05:43:15;;;;;;;3.90;2.37;;;15.40;57.10;16.40;98534.00;;;;5008913;28;20176;-44
2023/03/09 05:45:41;;;;;;;3.03;2.73;;;15.40;57.20;16.30;98543.00;;;;5010599;28;20239;-44
2023/03/09 05:48:07;;;;;;;4.13;2.70;;;15.40;57.10;16.30;98542.00;;;;5012474;28;20235;-43
2023/03/09 05:50:32;;;;;;;3.53;3.00;;;15.40;57.20;16.30;98559.00;;;;5012347;28;20174;-44
2023/03/09 05:52:58;;;;;;;5.90;3.23;;;15.30;57.10;16.30;98550.00;;;;5010767;28;20176;-43
2023/03/09 05:55:24;;;;;;;4.83;3.43;;;15.30;57.10;16.30;98542.00;;;;5010707;28;20182;-44
2023/03/09 05:57:50;;;;;;;5.10;3.13;;;15.30;57.10;16.30;98556.00;;;;5011639;28;20773;-43
2023/03/09 06:00:16;;;;;;;6.17;3.50;;;15.30;57.10;16.30;98558.00;;;;5011847;28;20187;-43
2023/03/09 06:02:42;;;;;;;6.00;3.40;;;15.30;57.10;16.30;98567.00;;;;5011652;28;20183;-43
2023/03/09 06:05:07;;;;;;;4.97;3.20;;;15.30;57.10;16.20;98568.00;;;;5011490;28;20239;-43
2023/03/09 06:07:33;;;;;;;3.83;3.10;;;15.30;57.10;16.20;98574.00;;;;5011734;28;20245;-44
2023/03/09 06:09:59;;;;;;;4.33;3.00;;;15.30;57.10;16.20;98586.00;;;;5011601;28;20168;-43
2023/03/09 06:12:25;;;;;;;3.30;3.00;;;15.30;57.10;16.20;98583.00;;;;5011047;28;20172;-44
2023/03/09 06:14:52;;;;;;;4.27;2.93;;;15.30;57.10;16.20;98496.00;;;;5013489;28;20176;-44
2023/03/09 06:17:17;;;;;;;3.40;3.10;;;15.20;57.60;16.20;98578.00;;;;5012827;28;20192;-45
2023/03/09 06:19:43;;;;;;;4.63;2.90;;;15.30;57.10;16.20;98581.00;;;;5011455;28;20182;-44
2023/03/09 06:22:09;;;;;;;3.20;2.80;;;15.20;57.00;16.20;98579.00;;;;5011303;28;20627;-44
2023/03/09 06:24:35;;;;;;;3.30;3.00;;;15.20;57.00;16.20;98580.00;;;;5010547;28;20246;-44
2023/03/09 06:27:01;;;;;;;3.33;3.00;;;15.20;57.00;16.20;98593.00;;;;5011458;28;20243;-44
2023/03/09 06:29:27;;;;;;;2.67;2.47;;;15.20;57.00;16.20;98598.00;;;;5011139;28;20179;-44
2023/03/09 06:31:53;;;;;;;3.10;2.90;;;15.20;56.90;16.10;98594.00;;;;5011216;28;20176;-44
2023/03/09 06:34:19;;;;;;;3.27;2.80;;;15.20;57.00;16.10;98598.00;;;;5011431;28;20195;-44
2023/03/09 06:36:44;;;;;;;3.03;2.73;;;15.20;56.90;16.10;98599.00;;;;5011227;28;20580;-47
2023/03/09 06:39:10;;;;;;;2.70;2.50;;;15.20;56.90;16.10;98608.00;;;;5011203;28;20271;-44
2023/03/09 06:41:36;;;;;;;2.90;2.60;;;15.20;57.00;16.10;98617.00;;;;5010767;28;20180;-44
2023/03/09 06:44:02;;;;;;;2.87;2.67;;;15.10;57.00;16.10;98619.00;;;;5011268;28;20333;-44
2023/03/09 06:46:28;;;;;;;2.80;2.60;;;15.10;56.90;16.10;98629.00;;;;5010426;28;20713;-44
2023/03/09 06:48:54;;;;;;;2.77;2.57;;;15.10;57.00;16.10;98629.00;;;;5011129;28;20259;-43
2023/03/09 06:51:20;;;;;;;2.70;2.50;;;15.10;57.00;16.10;98613.00;;;;5009257;28;20172;-44
2023/03/09 06:53:45;;;;;;;3.13;2.83;;;15.10;56.90;16.10;98613.00;;;;5010924;28;20648;-44
2023/03/09 06:56:11;;;;;;;3.13;2.83;;;15.10;56.90;16.00;98619.00;;;;5009890;28;20230;-44
2023/03/09 06:58:37;;;;;;;2.67;2.40;;;15.10;57.00;16.00;98637.00;;;;5010962;28;20187;-45
2023/03/09 07:01:10;;;;;;;2.73;2.53;;;15.10;56.90;16.00;98636.00;;;;5010405;28;20769;-44
2023/03/09 07:03:36;;;;;;;3.00;2.70;;;15.10;57.00;16.00;98634.00;;;;5011478;28;20182;-43
2023/03/09 07:06:03;;;;;;;2.80;2.60;;;15.00;56.80;16.00;98644.00;;;;5009903;28;20210;-44
2023/03/09 07:08:28;;;;;;;2.77;2.57;;;15.10;56.90;16.00;98642.00;;;;5010771;28;20176;-44
2023/03/09 07:10:54;;;;;;;2.73;2.53;;;15.10;56.90;16.00;98650.00;;;;5009975;28;20245;-44
2023/03/09 07:13:20;;;;;;;2.70;2.50;;;15.00;56.80;16.00;98661.00;;;;5010316;28;20176;-43
2023/03/09 07:15:46;;;;;;;2.80;2.60;;;15.00;56.80;16.00;98653.00;;;;5010737;28;20179;-45
2023/03/09 07:18:11;;;;;;;2.50;2.30;;;15.00;56.80;16.00;98657.00;;;;5010557;28;20199;-44
2023/03/09 07:20:38;;;;;;;2.67;2.47;;;15.00;56.80;16.00;98667.00;;;;5010372;28;20175;-45
2023/03/09 07:23:04;;;;;;;2.53;2.33;;;15.00;56.80;16.00;98664.00;;;;5009322;28;20176;-43
2023/03/09 07:25:33;;;;;;;2.57;2.37;;;15.00;56.80;15.90;98659.00;;;;5009765;28;20191;-44
2023/03/09 07:28:03;;;;;;;2.57;2.37;;;14.90;56.80;15.90;98674.00;;;;5010283;28;20234;-44
2023/03/09 07:30:29;;;;;;;2.43;2.23;;;15.00;56.90;15.90;98673.00;;;;5010185;28;20179;-44
2023/03/09 07:32:58;;;;;;;3.37;2.50;;;15.00;56.90;15.90;98688.00;;;;5010170;28;20171;-44
2023/03/09 07:35:24;;;;;;;3.13;2.43;;;14.90;56.80;15.90;98689.00;;;;5010342;28;20238;-44
2023/03/09 07:37:50;;;;;;;2.47;2.27;;;14.90;56.80;15.90;98693.00;;;;5009616;28;20203;-45
2023/03/09 07:40:17;;;;;;;2.60;2.40;;;14.90;56.80;15.90;98697.00;;;;5009880;28;20670;-44
2023/03/09 07:42:42;;;;;;;2.53;2.33;;;14.90;56.70;15.90;98700.00;;;;5012993;28;20270;-44
2023/03/09 07:45:09;;;;;;;2.57;2.37;;;14.90;56.70;15.90;98699.00;;;;5013135;28;20302;-44
2023/03/09 07:47:35;;;;;;;2.43;2.23;;;14.90;56.80;15.90;98703.00;;;;5012827;28;20192;-44
2023/03/09 07:50:01;;;;;;;2.70;2.50;;;14.90;56.80;15.90;98713.00;;;;5009780;28;20202;-44
2023/03/09 07:52:30;;;;;;;2.83;2.40;;;14.90;56.80;15.80;98718.00;;;;5009750;28;20207;-43
2023/03/09 07:54:59;;;;;;;2.40;2.20;;;14.90;56.80;15.80;98712.00;;;;5009594;28;20168;-43
2023/03/09 07:57:31;;;;;;;2.30;2.10;;;14.90;56.80;15.80;98723.00;;;;5010364;28;20199;-44
2023/03/09 07:59:57;;;;;;;2.70;2.50;;;14.90;56.80;15.80;98722.00;;;;5008514;28;20389;-44
2023/03/09 08:02:23;;;;;;;2.33;2.23;;;14.90;56.80;15.80;98735.00;;;;5009551;28;20237;-43
2023/03/09 08:04:49;;;;;;;2.53;2.33;;;14.80;56.70;15.80;98733.00;;;;5009593;28;20238;-43
2023/03/09 08:07:15;;;;;;;2.70;2.50;;;14.80;56.70;15.80;98749.00;;;;5008982;28;20191;-43
2023/03/09 08:09:41;;;;;;;2.70;2.50;;;14.80;56.70;15.80;98750.00;;;;5008595;28;20182;-43
2023/03/09 08:12:07;;;;;;;2.60;2.40;;;14.80;56.70;15.80;98748.00;;;;5009269;28;20275;-43
2023/03/09 08:14:33;;;;;;;2.70;2.50;;;14.80;56.70;15.70;98760.00;;;;5008261;28;20241;-43
2023/03/09 08:17:01;;;;;;;2.43;2.23;;;14.80;57.40;15.70;98756.00;;;;5008324;28;20195;-44
2023/03/09 08:19:27;;;;;;;2.70;2.50;;;14.80;56.70;15.70;98763.00;;;;5009487;28;20184;-44
2023/03/09 08:21:52;;;;;;;2.80;2.60;;;14.80;56.70;15.70;98767.00;;;;4989186;28;20800;-43
2023/03/09 08:24:18;;;;;;;2.60;2.40;;;14.80;56.70;15.70;98762.00;;;;5008886;28;20234;-44
2023/03/09 08:26:45;;;;;;;2.50;2.30;;;14.80;56.70;15.70;98771.00;;;;5015039;28;20246;-44
2023/03/09 08:29:11;;;;;;;2.37;2.20;;;14.80;56.70;15.30;98774.00;;;;5009736;28;20175;-44
2023/03/09 08:31:36;;;;;;;2.37;2.17;;;14.80;56.70;15.70;98771.00;;;;5009254;28;20176;-44
2023/03/09 08:34:03;;;;;;;2.40;2.20;;;14.80;56.70;15.70;98783.00;;;;5009295;28;20188;-44
2023/03/09 08:36:28;;;;;;;2.77;2.57;;;14.70;56.60;15.70;98786.00;;;;5009269;28;20207;-43
2023/03/09 08:38:54;;;;;;;2.50;2.30;;;14.70;56.60;15.70;98793.00;;;;5009485;28;20541;-44
2023/03/09 08:41:20;;;;;;;2.40;2.20;;;14.70;56.60;15.70;98801.00;;;;5008673;28;20669;-43
2023/03/09 08:43:46;;;;;;;2.40;2.30;;;14.80;56.70;15.70;98792.00;;;;5008936;28;20197;-44
2023/03/09 08:46:12;;;;;;;2.60;2.40;;;14.70;56.60;15.60;98810.00;;;;5008948;28;20298;-45
2023/03/09 08:48:38;;;;;;;2.40;2.20;;;14.70;56.60;15.60;98818.00;;;;5009301;28;20171;-44
2023/03/09 08:51:06;;;;;;;2.60;2.40;;;14.70;56.60;15.60;98819.00;;;;5007361;28;20179;-44
2023/03/09 08:53:33;;;;;;;2.80;2.60;;;14.70;56.70;15.60;98834.00;;;;5008781;28;20184;-45
2023/03/09 08:56:06;;;;;;;2.67;2.47;;;14.70;56.80;15.60;98823.00;;;;5008298;28;20675;-44
2023/03/09 08:58:33;;;;;;;2.50;2.30;;;14.70;56.70;15.60;98830.00;;;;5008908;28;20574;-44
2023/03/09 09:01:03;;;;;;;3.77;2.53;;;14.70;56.70;15.60;98830.00;;;;5008259;28;20199;-43
2023/03/09 09:03:29;;;;;;;2.77;2.50;;;14.70;56.90;15.60;98847.00;;;;5007324;28;20184;-44
2023/03/09 09:05:55;;;;;;;3.90;2.70;;;14.60;57.30;15.60;98850.00;;;;5003444;28;20200;-44
2023/03/09 09:08:21;;;;;;;2.63;2.43;;;14.50;57.40;15.60;98859.00;;;;5007093;28;20677;-43
2023/03/09 09:10:47;;;;;;;3.70;2.40;;;14.60;57.50;15.60;98845.00;;;;5007492;28;20175;-43
2023/03/09 09:13:13;;;;;;;3.23;2.47;;;14.60;57.30;15.60;98844.00;;;;5007997;28;20172;-43
2023/03/09 09:15:41;;;;;;;2.93;2.40;;;14.70;57.40;15.60;98840.00;;;;5008284;28;20176;-43
2023/03/09 09:18:07;;;;;;;4.13;2.60;;;14.70;57.50;15.70;98862.00;;;;5009868;28;20203;-44
2023/03/09 09:20:33;;;;;;;3.40;2.60;;;14.80;57.60;15.70;98866.00;;;;5012871;28;20186;-43
2023/03/09 09:22:58;;;;;;;3.33;2.50;;;14.90;57.70;15.70;98873.00;;;;5011572;28;20637;-43
2023/03/09 09:25:24;;;;;;;4.00;2.30;;;14.90;57.60;15.80;98877.00;;;;5013090;28;20713;-43
2023/03/09 09:27:50;;;;;;;4.77;2.40;;;15.00;57.70;15.80;98874.00;;;;5013070;28;20237;-47
2023/03/09 09:30:17;;;;;;;2.67;2.47;;;15.10;57.70;15.90;98875.00;;;;5012945;28;20218;-44
2023/03/09 09:32:44;;;;;;;2.60;2.40;;;15.20;57.70;16.00;98885.00;;;;5010414;28;20195;-44
2023/03/09 09:35:11;;;;;;;2.90;2.43;;;15.20;57.60;16.00;98880.00;;;;5012231;28;20179;-44
2023/03/09 09:37:38;;;;;;;3.00;2.40;;;15.30;57.50;16.10;98898.00;;;;5012653;28;20338;-43
2023/03/09 09:40:04;;;;;;;2.77;2.30;;;15.50;57.60;16.20;98883.00;;;;5011481;28;20180;-44
2023/03/09 09:42:39;;;;;;;3.70;2.50;;;15.50;57.40;16.30;98900.00;;;;5011893;28;20644;-43
2023/03/09 09:45:15;;;;;;;3.77;2.30;;;15.60;57.40;16.40;98899.00;;;;5010974;28;20266;-44
2023/03/09 09:47:41;;;;;;;3.50;2.50;;;15.70;57.50;16.50;98904.00;;;;5011143;28;20199;-44
2023/03/09 09:50:10;;;;;;;2.53;2.33;;;15.80;57.50;16.60;98910.00;;;;5012116;28;20184;-44
2023/03/09 09:52:59;;;;;;;5.00;2.60;;;15.90;57.60;16.70;98907.00;;;;5010805;28;20254;-44
2023/03/09 09:55:38;;;;;;;4.73;2.40;;;16.00;57.50;16.70;98922.00;;;;5011544;28;20260;-44
2023/03/09 09:58:09;;;;;;;4.70;2.40;;;16.10;57.50;16.80;98924.00;;;;5010537;28;20204;-43
2023/03/09 10:00:39;;;;;;;6.17;2.43;;;16.10;57.50;16.70;98918.00;;;;5007425;28;20185;-47
2023/03/09 10:03:32;;;;;;;7.00;2.50;;;16.10;57.50;16.90;98911.00;;;;5005930;28;20177;-44
2023/03/09 10:06:04;;;;;;;4.70;2.53;;;16.10;57.50;16.90;98908.00;;;;5004472;28;20279;-44
2023/03/09 10:08:42;;;;;;;8.57;2.43;;;16.20;57.80;17.00;98844.00;;;;5012018;28;20559;-44
2023/03/09 10:11:19;;;;;;;5.30;2.50;;;16.20;58.00;17.00;98909.00;;;;5011532;28;20550;-44
2023/03/09 10:13:52;;;;;;;8.00;2.70;;;16.20;58.30;17.00;98926.00;;;;5010727;28;20176;-44
2023/03/09 10:16:24;;;;;;;11.80;3.40;;;16.30;58.60;17.10;98922.00;;;;5010788;28;20203;-44
2023/03/09 10:18:59;;;;;;;8.17;3.23;;;16.20;58.80;17.10;98920.00;;;;5009154;28;20182;-44
2023/03/09 10:21:41;;;;;;;9.43;3.67;;;16.30;59.00;17.10;98941.00;;;;5010382;28;20662;-44
2023/03/09 10:24:25;;;;;;;12.07;3.40;;;16.30;59.10;17.20;98944.00;;;;5010236;28;21667;-44
2023/03/09 10:27:33;;;;;;;12.53;3.70;;;16.30;59.30;17.20;98947.00;;;;5006368;28;20207;-43
2023/03/09 10:30:18;;;;;;;10.70;3.60;;;16.30;59.40;17.20;98959.00;;;;5009954;28;20173;-45
2023/03/09 10:33:17;;;;;;;16.80;3.97;;;16.30;59.80;17.20;98949.00;;;;5007022;28;20318;-44
2023/03/09 10:36:05;;;;;;;18.67;3.80;;;16.30;60.10;17.20;98954.00;;;;5004185;28;20251;-44
2023/03/09 10:38:30;;;;;;;12.50;3.70;;;16.40;60.20;17.20;98965.00;;;;5005086;28;20227;-43
2023/03/09 10:40:56;;;;;;;17.33;3.87;;;16.30;60.50;17.20;98959.00;;;;5011022;28;20574;-44
2023/03/09 10:43:31;;;;;;;10.77;4.00;;;16.40;60.70;17.20;98968.00;;;;5011198;28;20164;-44
2023/03/09 10:46:22;;;;;;;11.17;4.20;;;16.40;60.70;17.30;98970.00;;;;5011486;28;20604;-45
2023/03/09 10:48:49;;;;;;;13.23;3.90;;;16.30;61.40;17.30;98976.00;;;;5010235;28;20197;-44
2023/03/09 10:51:24;;;;;;;7.93;3.60;;;16.40;60.70;17.30;98972.00;;;;5010130;28;20715;-43
2023/03/09 10:53:51;;;;;;;10.93;3.43;;;16.30;60.30;17.20;98968.00;;;;5010749;28;20185;-44
2023/03/09 10:56:28;;;;;;;11.23;3.70;;;16.30;60.20;17.20;98967.00;;;;5009774;28;20195;-44
2023/03/09 10:59:21;;;;;;;10.10;4.03;;;16.30;60.20;17.20;98969.00;;;;5011088;28;20896;-43